Search for the current weather situation

Metar

Metar
TNCB 211455Z 11017KT 070V150 9999 FEW020 SCT024 31/23 Q1012
Decoded Metar

TAF

TAF
TNCB 211455Z 11017KT 070V150 9999 FEW020 SCT024 31/23 Q1012
Decoded TAF
Top